Share

Acorn, KY

9:39 AM EDT on April 24, 2014 (GMT -0400)
RAWS SOMERSET KY US (MSOMK2) Elev 920 ft | 37.05 °N, 84.61 °W | Change Station
Active Advisory: Special Statement

Current weather conditions updated 38 minutes ago

Scattered Clouds
Scattered Clouds
51 °F
Feels Like 51 °F
N
5
Wind Variable Wind from NE
Gusts 10.0 mph
Sunrise 6:52 AM
Sunset 8:21 PM
Moon Waning Crescent

Today is forecast to be Much Warmer than yesterday. Cloudy with late night rain tonight.

Pressure 30.06 in
Visibility 10.0 miles
Clouds Scattered Clouds 12000 ft
Dew Point 34 °F
Humidity 53%
Rainfall 0.00 in
Snow Depth Not available.
UV 2 out of 16
Pollen 10.70 out of 12
Air Quality Not available.
Flu Activity Sporadic
METAR KSME 241315Z AUTO 10004KT 10SM SCT120 10/01 A3006 RMK AO2

More Conditions Fewer Conditions

Pressure 30.06 in
Visibility 10.0 miles
Clouds Scattered Clouds 12000 ft
Dew Point 34 °F
Humidity 53%
Rainfall 0.00 in
Snow Depth Not available.
UV 2 out of 16
Pollen 10.70 out of 12
Air Quality Not available.
Flu Activity Sporadic
METAR KSME 241315Z AUTO 10004KT 10SM SCT120 10/01 A3006 RMK AO2

More Conditions Fewer Conditions

10-Day Weather Forecast

Almanac

Astronomy

Apr. 24, 2014 Rise Set
Actual Time 6:52 AM EDT 8:21 PM EDT
Civil Twilight 6:24 AM EDT 8:48 PM EDT
Nautical Twilight 5:51 AM EDT 9:21 PM EDT
Astronomical Twilight 5:17 AM EDT 9:56 PM EDT
Moon 3:55 AM EDT 3:42 PM EDT
Length of Visible Light 14h 23m
Length of Day
13h 29m
Tomorrow will be 2m 7s longer.
Waning Crescent, 25% of the Moon is Illuminated
Today
Waning Crescent
Apr 29
New
May 6
First Quarter
May 14
Full
May 21
Last Quarter

Today's Extremes

State Highs State Lows

Community

  • Stacked
    Stacked
  • clouds approaching Red Sox Nation
    clouds approaching Red Sox Nation
  • Balance
    Balance
  • Citysky
    Citysky
  • Nestled In
    Nestled In

WunderPhotos

Upload Photos

1,704,605 photos uploaded!

Nearby

Snow Depth

Station Depth Elevation
No new snow has been reported.

Coastal Water Temperatures

Place Temperature
No Stations Reporting

Earthquake Activity

City Distance Mag. Time & Date
No recent earthquake activity has been reported nearby.
Minimum magnitude displayed is 2.5.

Nearby Weather Stations

Station Location Temp. Dew Point Humidity Wind Precip. Elev Updated Type
RAWS SOMERSET KY, Ferguson, KY 51 °F 34 °F 53% NE  at  5 mph 0.00 in / hr 920 ft 9:01 AM EDT MADIS
HALLS BACKYARD WEATHER, SCIENCE HILL, KY 50.4 °F 36 °F 58% NW  at  4.0 mph 0.00 in / hr 1076 ft 9:39 AM EDT Normal
Burnside, KY 53.4 °F 19 °F 26% NW  at  0.0 mph 0.00 in / hr 1200 ft 9:39 AM EDT Rapid Fire

Show More Stations Show Fewer Stations

What do you think?

We're not finished. Please let us know what you like, what you don't like, and what you are still missing.